createdAt,value
2019-06-08T00:01:58.422Z,65.25
2019-06-08T00:04:26.950Z,65.34
2019-06-08T00:06:55.456Z,65.48
2019-06-08T00:09:24.189Z,65.73
2019-06-08T00:11:52.773Z,65.80
2019-06-08T00:14:21.517Z,65.80
2019-06-08T00:16:50.142Z,65.87
2019-06-08T00:19:19.452Z,65.91
2019-06-08T00:21:47.887Z,65.73
2019-06-08T00:24:16.397Z,65.68
2019-06-08T00:26:45.285Z,65.44
2019-06-08T00:29:14.144Z,65.65
2019-06-08T00:31:42.606Z,65.80
2019-06-08T00:34:11.176Z,65.83
2019-06-08T00:36:39.618Z,65.97
2019-06-08T00:39:09.597Z,65.94
2019-06-08T00:41:38.570Z,65.56
2019-06-08T00:44:07.171Z,65.36
2019-06-08T00:46:35.745Z,65.31
2019-06-08T00:49:04.331Z,65.26
2019-06-08T00:51:32.916Z,65.19
2019-06-08T00:54:01.457Z,65.21
2019-06-08T00:56:30.068Z,65.32
2019-06-08T00:58:58.689Z,65.35
2019-06-08T01:01:28.274Z,65.45
2019-06-08T01:03:56.936Z,65.41
2019-06-08T01:06:25.521Z,65.28
2019-06-08T01:08:54.034Z,64.92
2019-06-08T01:11:22.675Z,64.33
2019-06-08T01:13:51.257Z,64.22
2019-06-08T01:16:20.965Z,64.02
2019-06-08T01:18:49.555Z,63.77
2019-06-08T01:21:19.427Z,63.64
2019-06-08T01:23:48.158Z,63.40
2019-06-08T01:26:16.718Z,63.09
2019-06-08T01:28:45.310Z,62.79
2019-06-08T01:31:13.897Z,62.28
2019-06-08T01:33:42.414Z,62.23
2019-06-08T01:36:10.997Z,62.12
2019-06-08T01:38:39.615Z,61.97
2019-06-08T01:41:08.133Z,61.40
2019-06-08T01:43:36.718Z,61.07
2019-06-08T01:46:05.234Z,61.06
2019-06-08T01:48:33.741Z,60.85
2019-06-08T01:51:02.247Z,60.84
2019-06-08T01:53:31.174Z,60.80
2019-06-08T01:55:59.858Z,60.94
2019-06-08T01:58:29.438Z,61.05
2019-06-08T02:00:58.189Z,61.25
2019-06-08T02:03:28.077Z,61.45
2019-06-08T02:05:56.771Z,61.40
2019-06-08T02:08:26.561Z,61.46
2019-06-08T02:10:55.181Z,61.60
2019-06-08T02:13:24.949Z,61.64
2019-06-08T02:15:53.658Z,61.13
2019-06-08T02:18:35.424Z,60.82
2019-06-08T02:20:52.427Z,60.25
2019-06-08T02:23:21.034Z,60.38
2019-06-08T02:25:49.474Z,60.32
2019-06-08T02:28:18.054Z,60.22
2019-06-08T02:30:46.609Z,59.89
2019-06-08T02:33:15.120Z,59.80
2019-06-08T02:35:43.723Z,59.84
2019-06-08T02:38:12.303Z,59.59
2019-06-08T02:40:40.887Z,59.33
2019-06-08T02:43:09.659Z,59.16
2019-06-08T02:45:40.381Z,58.96
2019-06-08T02:48:09.324Z,58.59
2019-06-08T02:50:49.708Z,58.36
2019-06-08T02:53:19.500Z,58.47
2019-06-08T02:55:49.519Z,58.52
2019-06-08T02:58:18.618Z,58.67
2019-06-08T03:00:48.405Z,58.92
2019-06-08T03:03:16.990Z,59.25
2019-06-08T03:05:45.670Z,59.51
2019-06-08T03:08:14.258Z,59.50
2019-06-08T03:10:43.063Z,59.75
2019-06-08T03:13:14.370Z,59.51
2019-06-08T03:15:43.663Z,59.43
2019-06-08T03:18:12.510Z,59.57
2019-06-08T03:20:42.439Z,59.33
2019-06-08T03:23:11.195Z,59.50
2019-06-08T03:25:50.700Z,59.52
2019-06-08T03:28:09.927Z,59.62
2019-06-08T03:30:45.553Z,59.59
2019-06-08T03:33:08.882Z,59.72
2019-06-08T03:35:43.990Z,59.84
2019-06-08T03:38:07.708Z,60.07
2019-06-08T03:40:38.035Z,60.20
2019-06-08T03:43:06.608Z,60.38
2019-06-08T03:45:36.364Z,60.42
2019-06-08T03:48:05.071Z,60.31
2019-06-08T03:50:35.327Z,60.46
2019-06-08T03:53:03.886Z,60.66
2019-06-08T03:55:32.326Z,60.65
2019-06-08T03:58:00.902Z,60.83
2019-06-08T04:00:29.487Z,60.84
2019-06-08T04:02:58.110Z,61.17
2019-06-08T04:05:26.698Z,61.67
2019-06-08T04:07:55.212Z,62.07
2019-06-08T04:10:23.687Z,62.68
2019-06-08T04:12:52.267Z,62.89
2019-06-08T04:15:20.913Z,63.11
2019-06-08T04:17:50.360Z,63.43
2019-06-08T04:20:19.748Z,63.81
2019-06-08T04:22:48.265Z,64.02
2019-06-08T04:25:16.914Z,64.01
2019-06-08T04:27:46.954Z,64.17
2019-06-08T04:30:16.247Z,64.23
2019-06-08T04:32:45.035Z,64.35
2019-06-08T04:35:14.278Z,64.45
2019-06-08T04:37:44.627Z,64.52
2019-06-08T04:40:13.310Z,64.66
2019-06-08T04:42:43.931Z,64.50
2019-06-08T04:45:12.085Z,64.12
2019-06-08T04:47:42.650Z,64.10
2019-06-08T04:50:22.771Z,63.94
2019-06-08T04:52:42.556Z,63.65
2019-06-08T04:55:11.273Z,63.93
2019-06-08T04:57:41.851Z,63.80
2019-06-08T05:00:12.589Z,63.57
2019-06-08T05:02:42.153Z,63.55
2019-06-08T05:05:11.132Z,63.67
2019-06-08T05:07:41.418Z,63.33
2019-06-08T05:10:10.139Z,62.95
2019-06-08T05:12:39.206Z,62.86
2019-06-08T05:15:08.183Z,62.78
2019-06-08T05:17:36.796Z,62.48
2019-06-08T05:20:08.799Z,62.58
2019-06-08T05:22:39.271Z,62.69
2019-06-08T05:25:08.154Z,62.62
2019-06-08T05:27:36.697Z,62.16
2019-06-08T05:30:09.035Z,62.55
2019-06-08T05:32:39.395Z,62.55
2019-06-08T05:35:08.026Z,62.37
2019-06-08T05:37:36.637Z,62.62
2019-06-08T05:40:07.138Z,62.61
2019-06-08T05:42:35.650Z,62.34
2019-06-08T05:45:06.731Z,61.97
2019-06-08T05:47:35.317Z,62.20
2019-06-08T05:50:08.174Z,61.70
2019-06-08T05:52:36.769Z,61.64
2019-06-08T05:55:08.542Z,61.25
2019-06-08T05:57:37.108Z,61.13
2019-06-08T06:00:10.233Z,61.19
2019-06-08T06:02:40.154Z,61.04
2019-06-08T06:05:08.969Z,61.08
2019-06-08T06:07:37.581Z,61.19
2019-06-08T06:10:06.569Z,61.25
2019-06-08T06:12:35.309Z,61.28
2019-06-08T06:15:05.735Z,61.52
2019-06-08T06:17:34.327Z,61.39
2019-06-08T06:20:03.044Z,61.55
2019-06-08T06:22:31.711Z,61.71
2019-06-08T06:25:00.303Z,61.52
2019-06-08T06:27:28.874Z,61.71
2019-06-08T06:29:57.416Z,61.58
2019-06-08T06:32:26.019Z,61.46
2019-06-08T06:34:54.612Z,61.67
2019-06-08T06:37:23.195Z,61.75
2019-06-08T06:39:52.247Z,61.84
2019-06-08T06:42:24.599Z,61.74
2019-06-08T06:44:52.465Z,61.57
2019-06-08T06:47:21.082Z,61.63
2019-06-08T06:49:50.655Z,61.55
2019-06-08T06:52:19.363Z,61.59
2019-06-08T06:54:48.956Z,61.48
2019-06-08T06:57:17.520Z,61.29
2019-06-08T06:59:47.135Z,61.60
2019-06-08T07:02:16.260Z,61.40
2019-06-08T07:04:45.936Z,61.48
2019-06-08T07:07:14.476Z,61.49
2019-06-08T07:09:44.285Z,61.44
2019-06-08T07:12:13.066Z,61.19
2019-06-08T07:14:41.752Z,61.16
2019-06-08T07:17:10.333Z,60.71
2019-06-08T07:19:38.926Z,60.52
2019-06-08T07:22:07.622Z,60.69
2019-06-08T07:24:36.217Z,60.64
2019-06-08T07:27:07.493Z,61.11
2019-06-08T07:29:35.216Z,61.39
2019-06-08T07:32:03.996Z,61.49
2019-06-08T07:34:32.657Z,61.26
2019-06-08T07:37:01.179Z,61.19
2019-06-08T07:39:29.646Z,61.10
2019-06-08T07:41:58.271Z,61.34
2019-06-08T07:44:26.806Z,60.64
2019-06-08T07:46:55.818Z,60.71
2019-06-08T07:49:24.480Z,61.08
2019-06-08T07:52:02.525Z,61.57
2019-06-08T07:54:23.421Z,61.55
2019-06-08T07:56:52.913Z,61.77
2019-06-08T07:59:21.426Z,61.83
2019-06-08T08:01:50.023Z,61.82
2019-06-08T08:04:18.615Z,61.63
2019-06-08T08:06:48.359Z,61.69
2019-06-08T08:09:16.849Z,61.62
2019-06-08T08:11:45.431Z,61.76
2019-06-08T08:14:13.876Z,61.77
2019-06-08T08:16:42.507Z,61.46
2019-06-08T08:19:11.023Z,61.50
2019-06-08T08:21:40.939Z,61.29
2019-06-08T08:24:09.545Z,59.98
2019-06-08T08:26:39.201Z,59.77
2019-06-08T08:29:08.527Z,59.29
2019-06-08T08:31:37.464Z,59.40
2019-06-08T08:34:08.915Z,59.72
2019-06-08T08:36:38.081Z,60.15
2019-06-08T08:39:08.668Z,60.10
2019-06-08T08:41:38.990Z,60.26
2019-06-08T08:44:08.041Z,60.25
2019-06-08T08:46:38.741Z,59.95
2019-06-08T08:49:12.095Z,59.78
2019-06-08T08:51:37.772Z,59.31
2019-06-08T08:54:08.779Z,59.74
2019-06-08T08:56:38.376Z,59.46
2019-06-08T08:59:07.852Z,59.25
2019-06-08T09:01:38.325Z,59.28
2019-06-08T09:04:08.780Z,58.97
2019-06-08T09:06:38.216Z,59.06
2019-06-08T09:09:08.869Z,58.69
2019-06-08T09:11:40.947Z,58.80
2019-06-08T09:14:13.780Z,57.89
2019-06-08T09:16:38.566Z,57.87
2019-06-08T09:19:08.499Z,57.79
2019-06-08T09:21:38.363Z,58.13
2019-06-08T09:24:07.807Z,57.86
2019-06-08T09:26:38.180Z,58.21
2019-06-08T09:29:10.634Z,58.02
2019-06-08T09:31:39.087Z,58.03
2019-06-08T09:34:13.474Z,57.99
2019-06-08T09:36:40.751Z,57.72
2019-06-08T09:39:12.625Z,57.11
2019-06-08T09:41:39.309Z,56.54
2019-06-08T09:44:10.656Z,56.51
2019-06-08T09:46:38.526Z,56.14
2019-06-08T09:49:11.093Z,55.75
2019-06-08T09:51:37.951Z,55.36
2019-06-08T09:54:11.841Z,55.42
2019-06-08T09:56:37.916Z,55.17
2019-06-08T09:59:10.540Z,55.22
2019-06-08T10:01:38.440Z,55.11
2019-06-08T10:04:09.247Z,55.47
2019-06-08T10:06:37.719Z,55.28
2019-06-08T10:09:09.142Z,55.21
2019-06-08T10:11:38.122Z,54.93
2019-06-08T10:14:11.675Z,55.07
2019-06-08T10:16:38.184Z,55.27
2019-06-08T10:19:10.055Z,55.19
2019-06-08T10:21:38.505Z,54.65
2019-06-08T10:24:09.449Z,54.78
2019-06-08T10:26:37.799Z,55.04
2019-06-08T10:29:09.891Z,54.78
2019-06-08T10:31:43.072Z,55.22
2019-06-08T10:34:10.820Z,55.42
2019-06-08T10:36:38.347Z,55.62
2019-06-08T10:39:11.395Z,55.49
2019-06-08T10:41:38.835Z,55.77
2019-06-08T10:44:11.197Z,55.61
2019-06-08T10:46:40.326Z,55.89
2019-06-08T10:49:09.590Z,56.17
2019-06-08T10:51:40.887Z,56.03
2019-06-08T10:54:11.056Z,56.01
2019-06-08T10:56:39.237Z,56.40
2019-06-08T10:59:11.639Z,56.24
2019-06-08T11:01:38.643Z,55.83
2019-06-08T11:04:08.116Z,55.87
2019-06-08T11:06:40.145Z,56.48
2019-06-08T11:09:12.772Z,55.52
2019-06-08T11:11:38.638Z,54.77
2019-06-08T11:14:12.397Z,54.41
2019-06-08T11:16:38.535Z,53.62
2019-06-08T11:19:11.455Z,53.46
2019-06-08T11:21:38.584Z,53.91
2019-06-08T11:24:22.492Z,54.04
2019-06-08T11:26:40.263Z,54.19
2019-06-08T11:29:11.852Z,53.36
2019-06-08T11:31:39.275Z,53.80
2019-06-08T11:34:08.588Z,53.75
2019-06-08T11:36:39.450Z,53.50
2019-06-08T11:39:10.662Z,53.65
2019-06-08T11:41:38.651Z,53.08
2019-06-08T11:44:11.861Z,52.50
2019-06-08T11:46:38.451Z,52.64
2019-06-08T11:49:12.573Z,52.79
2019-06-08T11:51:38.205Z,52.32
2019-06-08T11:54:25.646Z,52.14
2019-06-08T11:56:40.098Z,52.63
2019-06-08T11:59:07.425Z,52.50
2019-06-08T12:01:36.083Z,52.78
2019-06-08T12:04:05.836Z,53.38
2019-06-08T12:06:34.542Z,53.57
2019-06-08T12:09:04.134Z,53.74
2019-06-08T12:11:32.985Z,53.61
2019-06-08T12:14:02.665Z,54.24
2019-06-08T12:16:31.233Z,54.25
2019-06-08T12:18:59.692Z,54.31
2019-06-08T12:21:28.275Z,53.85
2019-06-08T12:23:56.875Z,53.75
2019-06-08T12:26:25.492Z,53.03
2019-06-08T12:28:54.011Z,52.70
2019-06-08T12:31:22.990Z,52.26
2019-06-08T12:33:51.641Z,51.77
2019-06-08T12:36:20.986Z,51.72
2019-06-08T12:38:49.723Z,51.05
2019-06-08T12:41:19.393Z,51.34
2019-06-08T12:43:48.088Z,50.48
2019-06-08T12:46:19.121Z,50.76
2019-06-08T12:48:46.943Z,50.84
2019-06-08T12:51:17.230Z,51.10
2019-06-08T12:53:46.001Z,49.61
2019-06-08T12:56:18.662Z,50.26
2019-06-08T12:58:47.403Z,50.21
2019-06-08T13:01:16.578Z,49.89
2019-06-08T13:03:45.101Z,49.51
2019-06-08T13:06:14.022Z,49.12
2019-06-08T13:08:42.683Z,49.23
2019-06-08T13:11:12.322Z,48.97
2019-06-08T13:13:40.825Z,49.13
2019-06-08T13:16:10.509Z,49.23
2019-06-08T13:18:40.825Z,49.69
2019-06-08T13:21:23.375Z,49.61
2019-06-08T13:23:41.310Z,49.29
2019-06-08T13:26:11.498Z,49.29
2019-06-08T13:28:40.275Z,48.75
2019-06-08T13:31:11.657Z,47.76
2019-06-08T13:33:39.249Z,47.69
2019-06-08T13:36:07.699Z,48.17
2019-06-08T13:38:38.041Z,48.22
2019-06-08T13:41:08.616Z,47.82
2019-06-08T13:43:40.351Z,47.04
2019-06-08T13:46:08.191Z,46.21
2019-06-08T13:48:37.601Z,46.65
2019-06-08T13:51:08.421Z,46.69
2019-06-08T13:53:38.384Z,47.82
2019-06-08T13:56:07.810Z,47.17
2019-06-08T13:58:38.264Z,47.13
2019-06-08T14:01:10.031Z,46.96
2019-06-08T14:03:38.402Z,47.27
2019-06-08T14:06:07.696Z,47.31
2019-06-08T14:08:38.591Z,47.10
2019-06-08T14:11:08.286Z,46.72
2019-06-08T14:13:38.038Z,45.83
2019-06-08T14:16:11.208Z,45.64
2019-06-08T14:18:38.591Z,46.03
2019-06-08T14:21:07.527Z,44.77
2019-06-08T14:23:38.646Z,44.66
2019-06-08T14:26:08.324Z,45.29
2019-06-08T14:28:38.074Z,44.69
2019-06-08T14:31:10.582Z,45.71
2019-06-08T14:33:38.116Z,45.38
2019-06-08T14:36:07.983Z,46.11
2019-06-08T14:38:41.039Z,46.21
2019-06-08T14:41:07.594Z,46.19
2019-06-08T14:43:38.145Z,46.64
2019-06-08T14:46:08.084Z,46.73
2019-06-08T14:48:38.010Z,46.45
2019-06-08T14:51:08.820Z,47.22
2019-06-08T14:53:38.684Z,47.15
2019-06-08T14:56:08.924Z,46.80
2019-06-08T14:58:38.573Z,47.29
2019-06-08T15:01:08.018Z,47.65
2019-06-08T15:03:37.903Z,47.56
2019-06-08T15:06:08.137Z,47.31
2019-06-08T15:08:36.877Z,46.94
2019-06-08T15:11:07.905Z,46.80
2019-06-08T15:13:38.027Z,46.01
2019-06-08T15:16:08.115Z,46.05
2019-06-08T15:18:38.468Z,46.61
2019-06-08T15:21:07.966Z,46.07
2019-06-08T15:23:36.673Z,46.66
2019-06-08T15:26:17.611Z,46.50
2019-06-08T15:28:36.418Z,46.41
2019-06-08T15:31:08.141Z,47.06
2019-06-08T15:33:35.449Z,47.51
2019-06-08T15:36:03.987Z,47.81
2019-06-08T15:38:33.544Z,48.95
2019-06-08T15:41:02.063Z,52.69
2019-06-08T15:43:35.274Z,58.08
2019-06-08T15:46:01.031Z,62.86
2019-06-08T15:48:32.269Z,66.22
2019-06-08T15:51:00.630Z,67.87
2019-06-08T15:53:31.247Z,68.78
2019-06-08T15:55:59.426Z,69.21
2019-06-08T15:58:29.908Z,69.65
2019-06-08T16:00:58.211Z,69.28
2019-06-08T16:03:27.435Z,68.37
2019-06-08T16:05:56.192Z,67.06
2019-06-08T16:08:25.920Z,66.66
2019-06-08T16:10:54.699Z,67.18
2019-06-08T16:13:24.632Z,67.69
2019-06-08T16:15:53.215Z,69.12
2019-06-08T16:18:21.806Z,70.40
2019-06-08T16:20:50.319Z,70.92
2019-06-08T16:23:18.906Z,71.20
2019-06-08T16:25:47.538Z,71.28
2019-06-08T16:28:16.121Z,71.52
2019-06-08T16:30:44.909Z,71.31
2019-06-08T16:33:13.425Z,72.60
2019-06-08T16:35:42.011Z,72.98
2019-06-08T16:38:10.620Z,73.97
2019-06-08T16:40:40.499Z,73.30
2019-06-08T16:43:09.077Z,72.89
2019-06-08T16:45:37.673Z,72.43
2019-06-08T16:48:06.172Z,73.15
2019-06-08T16:50:34.687Z,72.59
2019-06-08T16:53:03.350Z,72.88
2019-06-08T16:55:32.151Z,72.86
2019-06-08T16:58:00.817Z,72.46
2019-06-08T17:00:31.472Z,72.73
2019-06-08T17:02:59.854Z,72.52
2019-06-08T17:05:28.906Z,72.15
2019-06-08T17:07:57.668Z,71.92
2019-06-08T17:10:26.300Z,71.45
2019-06-08T17:12:54.758Z,70.91
2019-06-08T17:15:23.522Z,70.27
2019-06-08T17:17:52.061Z,68.73
2019-06-08T17:20:20.740Z,68.39
2019-06-08T17:22:49.370Z,67.72
2019-06-08T17:25:17.993Z,67.01
2019-06-08T17:27:46.580Z,66.85
2019-06-08T17:30:15.578Z,67.09
2019-06-08T17:32:44.208Z,66.84
2019-06-08T17:35:13.068Z,67.03
2019-06-08T17:37:41.983Z,67.40
2019-06-08T17:40:10.989Z,67.25
2019-06-08T17:42:39.711Z,67.24
2019-06-08T17:45:08.509Z,67.60
2019-06-08T17:47:38.398Z,67.80
2019-06-08T17:50:07.587Z,67.80
2019-06-08T17:52:37.056Z,68.26
2019-06-08T17:55:06.729Z,68.47
2019-06-08T17:57:45.736Z,68.96
2019-06-08T18:00:08.104Z,69.08
2019-06-08T18:02:39.903Z,69.74
2019-06-08T18:05:07.533Z,69.99
2019-06-08T18:07:38.520Z,70.44
2019-06-08T18:10:07.311Z,70.97
2019-06-08T18:12:39.240Z,71.47
2019-06-08T18:15:07.978Z,72.09
2019-06-08T18:17:40.772Z,72.68
2019-06-08T18:20:11.861Z,73.04
2019-06-08T18:22:42.815Z,73.05
2019-06-08T18:25:10.923Z,73.44
2019-06-08T18:27:41.299Z,73.42
2019-06-08T18:30:11.976Z,73.46
2019-06-08T18:32:42.468Z,73.70
2019-06-08T18:35:11.486Z,73.97
2019-06-08T18:37:41.326Z,74.13
2019-06-08T18:40:12.921Z,74.57
2019-06-08T18:42:42.590Z,74.83
2019-06-08T18:45:13.314Z,75.09
2019-06-08T18:47:42.759Z,75.50
2019-06-08T18:50:12.848Z,75.80
2019-06-08T18:52:44.745Z,76.21
2019-06-08T18:55:13.222Z,76.35
2019-06-08T18:57:42.699Z,76.51
2019-06-08T19:00:12.705Z,76.63
2019-06-08T19:02:43.350Z,76.81
2019-06-08T19:05:11.520Z,76.85
2019-06-08T19:07:41.318Z,77.00
2019-06-08T19:10:11.255Z,77.10
2019-06-08T19:12:41.823Z,77.28
2019-06-08T19:15:11.447Z,77.32
2019-06-08T19:17:46.546Z,77.48
2019-06-08T19:20:10.478Z,77.48
2019-06-08T19:22:43.755Z,77.60
2019-06-08T19:25:09.746Z,77.77
2019-06-08T19:27:43.898Z,77.66
2019-06-08T19:30:08.745Z,77.67
2019-06-08T19:32:41.896Z,77.55
2019-06-08T19:35:10.113Z,77.45
2019-06-08T19:37:39.670Z,77.19
2019-06-08T19:40:08.312Z,77.17
2019-06-08T19:42:45.603Z,76.96
2019-06-08T19:45:08.725Z,76.95
2019-06-08T19:47:38.393Z,76.92
2019-06-08T19:50:07.931Z,76.79
2019-06-08T19:52:40.032Z,76.56
2019-06-08T19:55:08.193Z,76.33
2019-06-08T19:57:36.970Z,76.34
2019-06-08T20:00:08.821Z,76.24
2019-06-08T20:02:37.327Z,76.45
2019-06-08T20:05:07.635Z,76.71
2019-06-08T20:07:37.965Z,77.01
2019-06-08T20:10:08.177Z,77.18
2019-06-08T20:12:37.390Z,77.22
2019-06-08T20:15:08.648Z,77.13
2019-06-08T20:17:37.411Z,77.04
2019-06-08T20:20:11.166Z,76.87
2019-06-08T20:22:39.923Z,76.86
2019-06-08T20:25:10.584Z,76.75
2019-06-08T20:27:39.032Z,76.56
2019-06-08T20:30:09.618Z,76.36
2019-06-08T20:32:38.185Z,76.17
2019-06-08T20:35:08.215Z,76.01
2019-06-08T20:37:38.102Z,76.06
2019-06-08T20:40:13.661Z,75.77
2019-06-08T20:42:38.005Z,75.55
2019-06-08T20:45:08.115Z,75.41
2019-06-08T20:47:39.084Z,75.36
2019-06-08T20:50:07.780Z,75.36
2019-06-08T20:52:37.802Z,75.40
2019-06-08T20:55:08.091Z,75.35
2019-06-08T20:57:36.724Z,75.38
2019-06-08T21:00:11.679Z,75.31
2019-06-08T21:02:39.376Z,75.37
2019-06-08T21:05:08.331Z,75.41
2019-06-08T21:07:36.954Z,75.44
2019-06-08T21:10:08.551Z,75.58
2019-06-08T21:12:39.124Z,75.81
2019-06-08T21:15:07.907Z,76.00
2019-06-08T21:17:38.377Z,76.25
2019-06-08T21:20:08.562Z,76.38
2019-06-08T21:22:37.368Z,76.66
2019-06-08T21:25:08.669Z,76.79
2019-06-08T21:27:38.505Z,77.05
2019-06-08T21:30:19.914Z,77.14
2019-06-08T21:32:38.641Z,77.26
2019-06-08T21:35:07.736Z,77.47
2019-06-08T21:37:37.699Z,77.49
2019-06-08T21:40:08.475Z,77.61
2019-06-08T21:42:37.405Z,77.71
2019-06-08T21:45:09.743Z,77.93
2019-06-08T21:47:38.494Z,78.12
2019-06-08T21:50:08.245Z,78.34
2019-06-08T21:52:37.027Z,78.58
2019-06-08T21:55:07.228Z,78.75
2019-06-08T21:57:37.093Z,79.12
2019-06-08T22:00:34.603Z,79.37
2019-06-08T22:02:41.991Z,79.65
2019-06-08T22:05:10.670Z,79.81
2019-06-08T22:07:39.319Z,80.02
2019-06-08T22:10:08.599Z,80.13
2019-06-08T22:12:40.214Z,80.40
2019-06-08T22:15:07.993Z,80.39
2019-06-08T22:17:38.298Z,80.66
2019-06-08T22:20:08.279Z,80.78
2019-06-08T22:22:37.894Z,81.05
2019-06-08T22:25:08.180Z,81.24
2019-06-08T22:27:38.229Z,81.40
2019-06-08T22:30:11.639Z,81.62
2019-06-08T22:32:38.562Z,81.78
2019-06-08T22:35:08.149Z,81.96
2019-06-08T22:37:38.013Z,82.06
2019-06-08T22:40:08.383Z,82.31
2019-06-08T22:42:37.571Z,82.54
2019-06-08T22:45:08.904Z,82.58
2019-06-08T22:47:38.757Z,82.70
2019-06-08T22:50:08.083Z,82.89
2019-06-08T22:52:37.480Z,83.07
2019-06-08T22:55:10.222Z,83.24
2019-06-08T22:57:37.759Z,83.28
2019-06-08T23:00:16.666Z,83.28
2019-06-08T23:02:38.669Z,83.46
2019-06-08T23:05:09.150Z,83.57
2019-06-08T23:07:37.965Z,83.43
2019-06-08T23:10:08.938Z,83.66
2019-06-08T23:12:38.300Z,83.80
2019-06-08T23:15:08.803Z,83.97
2019-06-08T23:17:38.747Z,84.48
2019-06-08T23:20:08.813Z,84.71
2019-06-08T23:22:40.409Z,84.83
2019-06-08T23:25:09.745Z,84.96
2019-06-08T23:27:38.566Z,85.05
2019-06-08T23:30:10.025Z,85.37
2019-06-08T23:32:39.019Z,85.48
2019-06-08T23:35:09.589Z,85.80
2019-06-08T23:37:38.463Z,86.08
2019-06-08T23:40:07.994Z,86.20
2019-06-08T23:42:38.261Z,86.28
2019-06-08T23:45:10.865Z,86.46
2019-06-08T23:47:39.770Z,86.63
2019-06-08T23:50:11.293Z,86.67
2019-06-08T23:52:38.966Z,86.74
2019-06-08T23:55:10.490Z,86.68
2019-06-08T23:57:38.703Z,86.66
